PWSweather.com
Personal Weather Stations
Station Observations
AF1HS
North Haven, CT 06473

North Haven, CT 06473

Lat: 41.3733, Lon: -72.8413

Elevation: 85.3

Station Type: Oregon Scientific WMR968

http://www.af1hs.com/wx/index.php

Latest ConditionsUpdated 9:20:45 PM EDT Monday, May 29, 2017
Currently Today's Max Today's Min Today's Average
Temperature 54.3°F12.4°C 57.2°F14.0°C 54.2°F12.3°C 55.7°F13.2°C
Dew Point 54.3°F12.4°C 57.0°F13.9°C 51.4°F10.8°C 55.6°F13.1°C
Winds Calm Calm 2.4 mph NNW3.9 kmh NNW - 0.1 mph 0.2 kmh
Wind Gusts -- 4.6 mph7.4 kmh - -
Humidity 100% 100% 81% 100%
Pressure 29.97 in1014.9 mb 29.97 in1014.9 mb 29.88 in1011.9 mb -
Hour Temp Dew Point Humidity Winds Wind Gusts Pressure Precip Precip Rate Daily Precip Total
09:20 PM 54.3°F12.4°C 54.3°F12.4°C 100% Calm Calm -- 29.97 in1014.9 mb - 0.00 in0.0 mm 0.00 in0.0 mm
09:10 PM 54.2°F12.3°C 54.2°F12.3°C 100% Calm Calm -- 29.97 in1014.9 mb - 0.00 in0.0 mm 0.00 in0.0 mm
09:00 PM 54.3°F12.4°C 54.3°F12.4°C 100% Calm Calm -- 29.97 in1014.9 mb - 0.00 in0.0 mm 0.00 in0.0 mm
08:50 PM 54.5°F12.5°C 54.5°F12.5°C 100% Calm Calm -- 29.97 in1014.9 mb - 0.00 in0.0 mm 0.00 in0.0 mm
08:40 PM 54.5°F12.5°C 54.5°F12.5°C 100% Calm Calm -- 29.97 in1014.9 mb - 0.00 in0.0 mm 0.00 in0.0 mm
08:30 PM 54.5°F12.5°C 54.5°F12.5°C 100% Calm Calm -- 29.97 in1014.9 mb - 0.00 in0.0 mm 0.00 in0.0 mm
08:20 PM 54.5°F12.5°C 54.5°F12.5°C 100% Calm Calm -- 29.97 in1014.9 mb - 0.00 in0.0 mm 0.00 in0.0 mm
08:10 PM 54.5°F12.5°C 54.5°F12.5°C 100% Calm Calm -- 29.97 in1014.9 mb - 0.00 in0.0 mm 0.00 in0.0 mm
08:00 PM 54.5°F12.5°C 54.5°F12.5°C 100% Calm Calm -- 29.97 in1014.9 mb - 0.00 in0.0 mm 0.00 in0.0 mm
07:50 PM 54.7°F12.6°C 54.7°F12.6°C 100% Calm Calm -- 29.97 in1014.9 mb - 0.00 in0.0 mm 0.00 in0.0 mm
07:40 PM 54.8°F12.7°C 54.8°F12.7°C 100% Calm Calm -- 29.97 in1014.9 mb - 0.00 in0.0 mm 0.00 in0.0 mm
07:30 PM 54.9°F12.7°C 54.9°F12.7°C 100% Calm Calm -- 29.97 in1014.9 mb - 0.00 in0.0 mm 0.00 in0.0 mm
07:20 PM 55.1°F12.8°C 55.1°F12.8°C 100% Calm Calm -- 29.97 in1014.9 mb - 0.00 in0.0 mm 0.00 in0.0 mm
07:10 PM 55.4°F13.0°C 55.4°F13.0°C 100% Calm Calm -- 29.97 in1014.9 mb - 0.00 in0.0 mm 0.00 in0.0 mm
07:00 PM 55.6°F13.1°C 55.6°F13.1°C 100% Calm Calm -- 29.95 in1014.2 mb - 0.00 in0.0 mm 0.00 in0.0 mm
06:50 PM 55.6°F13.1°C 55.6°F13.1°C 100% Calm Calm -- 29.94 in1013.9 mb - 0.00 in0.0 mm 0.00 in0.0 mm
06:40 PM 55.9°F13.3°C 55.9°F13.3°C 100% Calm Calm -- 29.94 in1013.9 mb - 0.00 in0.0 mm 0.00 in0.0 mm
06:30 PM 55.9°F13.3°C 55.9°F13.3°C 100% Calm Calm -- 29.94 in1013.9 mb - 0.00 in0.0 mm 0.00 in0.0 mm
06:20 PM 56.0°F13.3°C 56.0°F13.3°C 100% Calm Calm -- 29.94 in1013.9 mb - 0.00 in0.0 mm 0.00 in0.0 mm
06:10 PM 56.2°F13.4°C 56.2°F13.4°C 100% Calm Calm 2.2 mph3.5 kmh 29.94 in1013.9 mb - 0.00 in0.0 mm 0.00 in0.0 mm
06:00 PM 56.1°F13.4°C 56.1°F13.4°C 100% Calm Calm -- 29.94 in1013.9 mb - 0.00 in0.0 mm 0.00 in0.0 mm
05:50 PM 56.3°F13.5°C 56.3°F13.5°C 100% Calm Calm -- 29.94 in1013.9 mb - 0.00 in0.0 mm 0.00 in0.0 mm
05:40 PM 56.1°F13.4°C 56.1°F13.4°C 100% Calm Calm -- 29.94 in1013.9 mb - 0.00 in0.0 mm 0.00 in0.0 mm
05:30 PM 56.3°F13.5°C 56.3°F13.5°C 100% Calm Calm -- 29.92 in1013.2 mb - 0.00 in0.0 mm 0.00 in0.0 mm
05:20 PM 56.2°F13.4°C 56.2°F13.4°C 100% Calm Calm -- 29.91 in1012.9 mb - 0.00 in0.0 mm 0.00 in0.0 mm
05:10 PM 55.8°F13.2°C 55.8°F13.2°C 100% Calm Calm -- 29.94 in1013.9 mb - 0.00 in0.0 mm 0.00 in0.0 mm
05:00 PM 55.7°F13.2°C 55.7°F13.2°C 100% Calm Calm -- 29.93 in1013.5 mb - 0.00 in0.0 mm 0.00 in0.0 mm
04:50 PM 55.6°F13.1°C 55.6°F13.1°C 100% Calm Calm -- 29.91 in1012.9 mb - 0.00 in0.0 mm 0.00 in0.0 mm
04:40 PM 56.2°F13.4°C 56.2°F13.4°C 100% 0.7 mph N1.1 kmh N 4.0 mph6.4 kmh 29.91 in1012.9 mb - 0.00 in0.0 mm 0.00 in0.0 mm
04:30 PM 56.7°F13.7°C 56.7°F13.7°C 100% Calm Calm -- 29.91 in1012.9 mb - 0.00 in0.0 mm 0.00 in0.0 mm
04:20 PM 56.8°F13.8°C 56.8°F13.8°C 100% Calm Calm -- 29.91 in1012.9 mb - 0.00 in0.0 mm 0.00 in0.0 mm
04:10 PM 57.0°F13.9°C 57.0°F13.9°C 100% 0.2 mph N0.3 kmh N 2.7 mph4.3 kmh 29.91 in1012.9 mb - 0.00 in0.0 mm 0.00 in0.0 mm
04:00 PM 56.9°F13.8°C 56.9°F13.8°C 100% Calm Calm 2.7 mph4.3 kmh 29.91 in1012.9 mb - 0.00 in0.0 mm 0.00 in0.0 mm
03:50 PM 56.3°F13.5°C 56.3°F13.5°C 100% Calm Calm 2.2 mph3.5 kmh 29.91 in1012.9 mb - 0.00 in0.0 mm 0.00 in0.0 mm
03:40 PM 55.6°F13.1°C 55.6°F13.1°C 100% Calm Calm 2.2 mph3.5 kmh 29.91 in1012.9 mb - 0.00 in0.0 mm 0.00 in0.0 mm
03:30 PM 55.3°F12.9°C 55.3°F12.9°C 100% Calm Calm 2.2 mph3.5 kmh 29.91 in1012.9 mb - 0.00 in0.0 mm 0.00 in0.0 mm
03:20 PM 55.8°F13.2°C 55.8°F13.2°C 100% Calm Calm -- 29.91 in1012.9 mb - 0.00 in0.0 mm 0.00 in0.0 mm
03:10 PM 56.3°F13.5°C 56.3°F13.5°C 100% 2.4 mph NNW3.9 kmh NNW 4.0 mph6.4 kmh 29.91 in1012.9 mb - 0.00 in0.0 mm 0.00 in0.0 mm
03:00 PM 56.1°F13.4°C 56.1°F13.4°C 100% 0.6 mph NW1.0 kmh NW 3.6 mph5.8 kmh 29.91 in1012.9 mb - 0.00 in0.0 mm 0.00 in0.0 mm
02:50 PM 56.0°F13.3°C 56.0°F13.3°C 100% Calm Calm 2.7 mph4.3 kmh 29.91 in1012.9 mb - 0.00 in0.0 mm 0.00 in0.0 mm
02:40 PM 56.1°F13.4°C 56.1°F13.4°C 100% Calm Calm -- 29.91 in1012.9 mb - 0.00 in0.0 mm 0.00 in0.0 mm
02:30 PM 55.9°F13.3°C 55.9°F13.3°C 100% Calm Calm -- 29.91 in1012.9 mb - 0.00 in0.0 mm 0.00 in0.0 mm
02:20 PM 56.3°F13.5°C 56.3°F13.5°C 100% Calm Calm -- 29.91 in1012.9 mb - 0.00 in0.0 mm 0.00 in0.0 mm
02:10 PM 56.9°F13.8°C 56.9°F13.8°C 100% Calm Calm 2.2 mph3.5 kmh 29.88 in1011.9 mb - 0.00 in0.0 mm 0.00 in0.0 mm
02:00 PM 57.0°F13.9°C 57.0°F13.9°C 100% Calm Calm -- 29.88 in1011.9 mb - 0.00 in0.0 mm 0.00 in0.0 mm
01:50 PM 57.2°F14.0°C 51.4°F10.8°C 81% 0.9 mph NE1.4 kmh NE 4.6 mph7.4 kmh 29.88 in1011.9 mb - 0.00 in0.0 mm 0.00 in0.0 mm